sensor_id;sensor_type;location;lat;lon;timestamp;temperature;humidity
24262;DHT22;12385;51.412;5.540;2023-04-24T00:07:30;10.40;99.90
24262;DHT22;12385;51.412;5.540;2023-04-24T00:09:56;10.40;99.90
24262;DHT22;12385;51.412;5.540;2023-04-24T00:12:22;10.40;99.90
24262;DHT22;12385;51.412;5.540;2023-04-24T00:14:47;10.40;99.90
24262;DHT22;12385;51.412;5.540;2023-04-24T00:17:13;10.40;99.90
24262;DHT22;12385;51.412;5.540;2023-04-24T00:19:39;10.30;99.90
24262;DHT22;12385;51.412;5.540;2023-04-24T00:22:05;10.30;99.90
24262;DHT22;12385;51.412;5.540;2023-04-24T00:24:30;10.30;99.90
24262;DHT22;12385;51.412;5.540;2023-04-24T00:26:56;10.30;99.90
24262;DHT22;12385;51.412;5.540;2023-04-24T00:29:22;10.30;99.90
24262;DHT22;12385;51.412;5.540;2023-04-24T00:31:48;10.30;99.90
24262;DHT22;12385;51.412;5.540;2023-04-24T00:34:13;10.30;99.90
24262;DHT22;12385;51.412;5.540;2023-04-24T00:36:39;10.40;99.90
24262;DHT22;12385;51.412;5.540;2023-04-24T00:39:05;10.40;99.90
24262;DHT22;12385;51.412;5.540;2023-04-24T00:41:34;10.40;99.90
24262;DHT22;12385;51.412;5.540;2023-04-24T00:43:59;10.40;99.90
24262;DHT22;12385;51.412;5.540;2023-04-24T00:46:25;10.40;99.90
24262;DHT22;12385;51.412;5.540;2023-04-24T00:48:50;10.40;99.90
24262;DHT22;12385;51.412;5.540;2023-04-24T00:51:17;10.40;99.90
24262;DHT22;12385;51.412;5.540;2023-04-24T00:53:42;10.40;99.90
24262;DHT22;12385;51.412;5.540;2023-04-24T00:56:08;10.30;99.90
24262;DHT22;12385;51.412;5.540;2023-04-24T00:58:33;10.30;99.90
24262;DHT22;12385;51.412;5.540;2023-04-24T01:00:59;10.30;99.90
24262;DHT22;12385;51.412;5.540;2023-04-24T01:03:29;10.30;99.90
24262;DHT22;12385;51.412;5.540;2023-04-24T01:05:57;10.30;99.90
24262;DHT22;12385;51.412;5.540;2023-04-24T01:08:27;10.20;99.90
24262;DHT22;12385;51.412;5.540;2023-04-24T01:10:53;10.20;99.90
24262;DHT22;12385;51.412;5.540;2023-04-24T01:13:19;10.20;99.90
24262;DHT22;12385;51.412;5.540;2023-04-24T01:15:46;10.20;99.90
24262;DHT22;12385;51.412;5.540;2023-04-24T01:18:12;10.20;99.90
24262;DHT22;12385;51.412;5.540;2023-04-24T01:20:40;10.20;99.90
24262;DHT22;12385;51.412;5.540;2023-04-24T01:23:06;10.20;99.90
24262;DHT22;12385;51.412;5.540;2023-04-24T01:25:32;10.20;99.90
24262;DHT22;12385;51.412;5.540;2023-04-24T01:27:58;10.20;99.90
24262;DHT22;12385;51.412;5.540;2023-04-24T01:30:25;10.20;99.90
24262;DHT22;12385;51.412;5.540;2023-04-24T01:32:51;10.20;99.90
24262;DHT22;12385;51.412;5.540;2023-04-24T01:35:17;10.20;99.90
24262;DHT22;12385;51.412;5.540;2023-04-24T01:37:43;10.20;99.90
24262;DHT22;12385;51.412;5.540;2023-04-24T01:40:09;10.20;99.90
24262;DHT22;12385;51.412;5.540;2023-04-24T01:42:35;10.20;99.90
24262;DHT22;12385;51.412;5.540;2023-04-24T01:45:02;10.10;99.90
24262;DHT22;12385;51.412;5.540;2023-04-24T01:47:30;10.10;99.90
24262;DHT22;12385;51.412;5.540;2023-04-24T01:49:55;10.10;99.90
24262;DHT22;12385;51.412;5.540;2023-04-24T01:52:21;10.20;99.90
24262;DHT22;12385;51.412;5.540;2023-04-24T01:54:47;10.10;99.90
24262;DHT22;12385;51.412;5.540;2023-04-24T01:57:14;10.20;99.90
24262;DHT22;12385;51.412;5.540;2023-04-24T01:59:40;10.20;99.90
24262;DHT22;12385;51.412;5.540;2023-04-24T02:02:05;10.20;99.90
24262;DHT22;12385;51.412;5.540;2023-04-24T02:04:31;10.20;99.90
24262;DHT22;12385;51.412;5.540;2023-04-24T02:06:57;10.20;99.90
24262;DHT22;12385;51.412;5.540;2023-04-24T02:09:22;10.10;99.90
24262;DHT22;12385;51.412;5.540;2023-04-24T02:11:48;10.10;99.90
24262;DHT22;12385;51.412;5.540;2023-04-24T02:14:14;10.10;99.90
24262;DHT22;12385;51.412;5.540;2023-04-24T02:16:39;10.10;99.90
24262;DHT22;12385;51.412;5.540;2023-04-24T02:19:05;10.10;99.90
24262;DHT22;12385;51.412;5.540;2023-04-24T02:21:31;10.10;99.90
24262;DHT22;12385;51.412;5.540;2023-04-24T02:23:57;10.10;99.90
24262;DHT22;12385;51.412;5.540;2023-04-24T02:26:23;10.10;99.90
24262;DHT22;12385;51.412;5.540;2023-04-24T02:28:49;10.10;99.90
24262;DHT22;12385;51.412;5.540;2023-04-24T02:31:15;10.10;99.90
24262;DHT22;12385;51.412;5.540;2023-04-24T02:33:41;10.10;99.90
24262;DHT22;12385;51.412;5.540;2023-04-24T02:36:06;10.10;99.90
24262;DHT22;12385;51.412;5.540;2023-04-24T02:38:32;10.10;99.90
24262;DHT22;12385;51.412;5.540;2023-04-24T02:40:58;10.10;99.90
24262;DHT22;12385;51.412;5.540;2023-04-24T02:43:24;10.10;99.90
24262;DHT22;12385;51.412;5.540;2023-04-24T02:45:50;10.20;99.90
24262;DHT22;12385;51.412;5.540;2023-04-24T02:48:15;10.20;99.90
24262;DHT22;12385;51.412;5.540;2023-04-24T02:50:42;10.20;99.90
24262;DHT22;12385;51.412;5.540;2023-04-24T02:53:08;10.20;99.90
24262;DHT22;12385;51.412;5.540;2023-04-24T02:55:34;10.20;99.90
24262;DHT22;12385;51.412;5.540;2023-04-24T02:57:59;10.20;99.90
24262;DHT22;12385;51.412;5.540;2023-04-24T03:00:25;10.10;99.90
24262;DHT22;12385;51.412;5.540;2023-04-24T03:02:50;10.20;99.90
24262;DHT22;12385;51.412;5.540;2023-04-24T03:05:16;10.20;99.90
24262;DHT22;12385;51.412;5.540;2023-04-24T03:07:42;10.20;99.90
24262;DHT22;12385;51.412;5.540;2023-04-24T03:10:08;10.10;99.90
24262;DHT22;12385;51.412;5.540;2023-04-24T03:12:33;10.20;99.90
24262;DHT22;12385;51.412;5.540;2023-04-24T03:14:59;10.20;99.90
24262;DHT22;12385;51.412;5.540;2023-04-24T03:17:25;10.20;99.90
24262;DHT22;12385;51.412;5.540;2023-04-24T03:19:50;10.10;99.90
24262;DHT22;12385;51.412;5.540;2023-04-24T03:22:16;10.10;99.90
24262;DHT22;12385;51.412;5.540;2023-04-24T03:24:41;10.10;99.90
24262;DHT22;12385;51.412;5.540;2023-04-24T03:27:07;10.10;99.90
24262;DHT22;12385;51.412;5.540;2023-04-24T03:29:32;10.10;99.90
24262;DHT22;12385;51.412;5.540;2023-04-24T03:31:58;10.10;99.90
24262;DHT22;12385;51.412;5.540;2023-04-24T03:34:24;10.10;99.90
24262;DHT22;12385;51.412;5.540;2023-04-24T03:36:49;10.10;99.90
24262;DHT22;12385;51.412;5.540;2023-04-24T03:39:15;10.10;99.90
24262;DHT22;12385;51.412;5.540;2023-04-24T03:41:41;10.10;99.90
24262;DHT22;12385;51.412;5.540;2023-04-24T03:44:06;10.10;99.90
24262;DHT22;12385;51.412;5.540;2023-04-24T03:46:32;10.10;99.90
24262;DHT22;12385;51.412;5.540;2023-04-24T03:48:57;10.10;99.90
24262;DHT22;12385;51.412;5.540;2023-04-24T03:51:23;10.10;99.90
24262;DHT22;12385;51.412;5.540;2023-04-24T03:53:49;10.10;99.90
24262;DHT22;12385;51.412;5.540;2023-04-24T03:56:15;10.10;99.90
24262;DHT22;12385;51.412;5.540;2023-04-24T03:58:41;10.10;99.90
24262;DHT22;12385;51.412;5.540;2023-04-24T04:01:06;10.10;99.90
24262;DHT22;12385;51.412;5.540;2023-04-24T04:03:32;10.10;99.90
24262;DHT22;12385;51.412;5.540;2023-04-24T04:05:58;10.10;99.90
24262;DHT22;12385;51.412;5.540;2023-04-24T04:08:24;10.10;99.90
24262;DHT22;12385;51.412;5.540;2023-04-24T04:10:50;10.10;99.90
24262;DHT22;12385;51.412;5.540;2023-04-24T04:13:15;10.00;99.90
24262;DHT22;12385;51.412;5.540;2023-04-24T04:15:41;10.10;99.90
24262;DHT22;12385;51.412;5.540;2023-04-24T04:18:07;10.00;99.90
24262;DHT22;12385;51.412;5.540;2023-04-24T04:20:33;10.00;99.90
24262;DHT22;12385;51.412;5.540;2023-04-24T04:22:59;9.90;99.90
24262;DHT22;12385;51.412;5.540;2023-04-24T04:25:25;9.90;99.90
24262;DHT22;12385;51.412;5.540;2023-04-24T04:27:50;9.90;99.90
24262;DHT22;12385;51.412;5.540;2023-04-24T04:30:16;9.90;99.90
24262;DHT22;12385;51.412;5.540;2023-04-24T04:32:43;9.80;99.90
24262;DHT22;12385;51.412;5.540;2023-04-24T04:35:09;9.80;99.90
24262;DHT22;12385;51.412;5.540;2023-04-24T04:37:35;9.70;99.90
24262;DHT22;12385;51.412;5.540;2023-04-24T04:40:02;9.70;99.90
24262;DHT22;12385;51.412;5.540;2023-04-24T04:42:32;9.70;99.90
24262;DHT22;12385;51.412;5.540;2023-04-24T04:44:59;9.70;99.90
24262;DHT22;12385;51.412;5.540;2023-04-24T04:47:26;9.70;99.90
24262;DHT22;12385;51.412;5.540;2023-04-24T04:49:53;9.60;99.90
24262;DHT22;12385;51.412;5.540;2023-04-24T04:52:20;9.60;99.90
24262;DHT22;12385;51.412;5.540;2023-04-24T04:54:45;9.60;99.90
24262;DHT22;12385;51.412;5.540;2023-04-24T04:57:11;9.60;99.90
24262;DHT22;12385;51.412;5.540;2023-04-24T04:59:37;9.50;99.90
24262;DHT22;12385;51.412;5.540;2023-04-24T05:02:03;9.50;99.90
24262;DHT22;12385;51.412;5.540;2023-04-24T05:04:29;9.50;99.90
24262;DHT22;12385;51.412;5.540;2023-04-24T05:06:55;9.50;99.90
24262;DHT22;12385;51.412;5.540;2023-04-24T05:09:21;9.50;99.90
24262;DHT22;12385;51.412;5.540;2023-04-24T05:11:47;9.50;99.90
24262;DHT22;12385;51.412;5.540;2023-04-24T05:14:12;9.40;99.90
24262;DHT22;12385;51.412;5.540;2023-04-24T05:16:38;9.40;99.90
24262;DHT22;12385;51.412;5.540;2023-04-24T05:19:04;9.40;99.90
24262;DHT22;12385;51.412;5.540;2023-04-24T05:21:30;9.30;99.90
24262;DHT22;12385;51.412;5.540;2023-04-24T05:23:56;9.30;99.90
24262;DHT22;12385;51.412;5.540;2023-04-24T05:26:22;9.30;99.90
24262;DHT22;12385;51.412;5.540;2023-04-24T05:28:48;9.30;99.90
24262;DHT22;12385;51.412;5.540;2023-04-24T05:31:14;9.20;99.90
24262;DHT22;12385;51.412;5.540;2023-04-24T05:33:39;9.20;99.90
24262;DHT22;12385;51.412;5.540;2023-04-24T05:36:06;9.10;99.90
24262;DHT22;12385;51.412;5.540;2023-04-24T05:38:33;9.10;99.90
24262;DHT22;12385;51.412;5.540;2023-04-24T05:40:58;9.10;99.90
24262;DHT22;12385;51.412;5.540;2023-04-24T05:43:24;9.10;99.90
24262;DHT22;12385;51.412;5.540;2023-04-24T05:45:50;9.00;99.90
24262;DHT22;12385;51.412;5.540;2023-04-24T05:48:16;9.00;99.90
24262;DHT22;12385;51.412;5.540;2023-04-24T05:50:41;9.00;99.90
24262;DHT22;12385;51.412;5.540;2023-04-24T05:53:07;9.00;99.90
24262;DHT22;12385;51.412;5.540;2023-04-24T05:55:33;8.90;99.90
24262;DHT22;12385;51.412;5.540;2023-04-24T05:57:59;8.90;99.90
24262;DHT22;12385;51.412;5.540;2023-04-24T06:00:25;8.80;99.90
24262;DHT22;12385;51.412;5.540;2023-04-24T06:02:51;8.80;99.90
24262;DHT22;12385;51.412;5.540;2023-04-24T06:05:18;8.80;99.90
24262;DHT22;12385;51.412;5.540;2023-04-24T06:07:45;8.80;99.90
24262;DHT22;12385;51.412;5.540;2023-04-24T06:10:11;8.70;99.90
24262;DHT22;12385;51.412;5.540;2023-04-24T06:12:36;8.70;99.90
24262;DHT22;12385;51.412;5.540;2023-04-24T06:15:03;8.70;99.90
24262;DHT22;12385;51.412;5.540;2023-04-24T06:17:29;8.70;99.90
24262;DHT22;12385;51.412;5.540;2023-04-24T06:19:54;8.60;99.90
24262;DHT22;12385;51.412;5.540;2023-04-24T06:22:20;8.60;99.90
24262;DHT22;12385;51.412;5.540;2023-04-24T06:24:45;8.60;99.90
24262;DHT22;12385;51.412;5.540;2023-04-24T06:27:12;8.60;99.90
24262;DHT22;12385;51.412;5.540;2023-04-24T06:29:38;8.60;99.90
24262;DHT22;12385;51.412;5.540;2023-04-24T06:32:03;8.60;99.90
24262;DHT22;12385;51.412;5.540;2023-04-24T06:34:29;8.60;99.90
24262;DHT22;12385;51.412;5.540;2023-04-24T06:36:56;8.60;99.90
24262;DHT22;12385;51.412;5.540;2023-04-24T06:39:21;8.60;99.90
24262;DHT22;12385;51.412;5.540;2023-04-24T06:41:47;8.60;99.90
24262;DHT22;12385;51.412;5.540;2023-04-24T06:44:13;8.70;99.90
24262;DHT22;12385;51.412;5.540;2023-04-24T06:46:40;8.70;99.90
24262;DHT22;12385;51.412;5.540;2023-04-24T06:49:06;8.70;99.90
24262;DHT22;12385;51.412;5.540;2023-04-24T06:51:31;8.70;99.90
24262;DHT22;12385;51.412;5.540;2023-04-24T06:53:58;8.80;99.90
24262;DHT22;12385;51.412;5.540;2023-04-24T06:56:25;8.80;99.90
24262;DHT22;12385;51.412;5.540;2023-04-24T06:58:51;8.80;99.90
24262;DHT22;12385;51.412;5.540;2023-04-24T07:01:17;8.80;99.90
24262;DHT22;12385;51.412;5.540;2023-04-24T07:03:42;8.80;99.90
24262;DHT22;12385;51.412;5.540;2023-04-24T07:06:09;8.80;99.90
24262;DHT22;12385;51.412;5.540;2023-04-24T07:08:36;8.80;99.90
24262;DHT22;12385;51.412;5.540;2023-04-24T07:11:02;8.80;99.90
24262;DHT22;12385;51.412;5.540;2023-04-24T07:13:28;8.80;99.90
24262;DHT22;12385;51.412;5.540;2023-04-24T07:15:54;8.80;99.90
24262;DHT22;12385;51.412;5.540;2023-04-24T07:18:21;8.80;99.90
24262;DHT22;12385;51.412;5.540;2023-04-24T07:20:46;8.90;99.90
24262;DHT22;12385;51.412;5.540;2023-04-24T07:23:12;8.80;99.90
24262;DHT22;12385;51.412;5.540;2023-04-24T07:25:38;8.80;99.90
24262;DHT22;12385;51.412;5.540;2023-04-24T07:28:04;8.80;99.90
24262;DHT22;12385;51.412;5.540;2023-04-24T07:30:31;8.80;99.90
24262;DHT22;12385;51.412;5.540;2023-04-24T07:32:58;8.80;99.90
24262;DHT22;12385;51.412;5.540;2023-04-24T07:35:25;8.90;99.90
24262;DHT22;12385;51.412;5.540;2023-04-24T07:37:54;8.90;99.90
24262;DHT22;12385;51.412;5.540;2023-04-24T07:40:20;8.90;99.90
24262;DHT22;12385;51.412;5.540;2023-04-24T07:42:46;8.90;99.90
24262;DHT22;12385;51.412;5.540;2023-04-24T07:45:15;8.90;99.90
24262;DHT22;12385;51.412;5.540;2023-04-24T07:47:43;8.90;99.90
24262;DHT22;12385;51.412;5.540;2023-04-24T07:50:11;8.90;99.90
24262;DHT22;12385;51.412;5.540;2023-04-24T07:52:37;8.90;99.90
24262;DHT22;12385;51.412;5.540;2023-04-24T07:55:03;8.80;99.90
24262;DHT22;12385;51.412;5.540;2023-04-24T07:57:30;8.70;99.90
24262;DHT22;12385;51.412;5.540;2023-04-24T07:59:56;8.70;99.90
24262;DHT22;12385;51.412;5.540;2023-04-24T08:02:22;8.70;99.90
24262;DHT22;12385;51.412;5.540;2023-04-24T08:04:52;8.70;99.90
24262;DHT22;12385;51.412;5.540;2023-04-24T08:07:22;8.70;99.90
24262;DHT22;12385;51.412;5.540;2023-04-24T08:09:48;8.70;99.90
24262;DHT22;12385;51.412;5.540;2023-04-24T08:12:14;8.80;99.90
24262;DHT22;12385;51.412;5.540;2023-04-24T08:14:40;8.80;99.90
24262;DHT22;12385;51.412;5.540;2023-04-24T08:17:06;8.80;99.90
24262;DHT22;12385;51.412;5.540;2023-04-24T08:19:31;8.90;99.90
24262;DHT22;12385;51.412;5.540;2023-04-24T08:21:57;8.90;99.90
24262;DHT22;12385;51.412;5.540;2023-04-24T08:24:23;9.00;99.90
24262;DHT22;12385;51.412;5.540;2023-04-24T08:26:48;9.00;99.90
24262;DHT22;12385;51.412;5.540;2023-04-24T08:29:22;9.00;99.90
24262;DHT22;12385;51.412;5.540;2023-04-24T08:31:47;9.10;99.90
24262;DHT22;12385;51.412;5.540;2023-04-24T08:34:13;9.10;99.90
24262;DHT22;12385;51.412;5.540;2023-04-24T08:36:39;9.00;99.90
24262;DHT22;12385;51.412;5.540;2023-04-24T08:42:05;9.10;99.90
24262;DHT22;12385;51.412;5.540;2023-04-24T08:44:34;9.00;99.90
24262;DHT22;12385;51.412;5.540;2023-04-24T08:47:07;9.00;99.90
24262;DHT22;12385;51.412;5.540;2023-04-24T08:49:33;9.10;99.90
24262;DHT22;12385;51.412;5.540;2023-04-24T08:52:01;9.10;99.90
24262;DHT22;12385;51.412;5.540;2023-04-24T08:54:38;9.10;99.90
24262;DHT22;12385;51.412;5.540;2023-04-24T08:57:07;9.10;99.90
24262;DHT22;12385;51.412;5.540;2023-04-24T08:59:33;9.20;99.90
24262;DHT22;12385;51.412;5.540;2023-04-24T09:02:02;9.30;99.90
24262;DHT22;12385;51.412;5.540;2023-04-24T09:04:29;9.30;99.90
24262;DHT22;12385;51.412;5.540;2023-04-24T09:06:57;9.40;99.90
24262;DHT22;12385;51.412;5.540;2023-04-24T20:26:23;9.20;99.90
24262;DHT22;12385;51.412;5.540;2023-04-24T20:28:49;9.10;99.90
24262;DHT22;12385;51.412;5.540;2023-04-24T20:31:15;9.10;99.90
24262;DHT22;12385;51.412;5.540;2023-04-24T20:33:42;9.10;99.90
24262;DHT22;12385;51.412;5.540;2023-04-24T20:36:09;9.00;99.90
24262;DHT22;12385;51.412;5.540;2023-04-24T20:38:36;9.00;99.90
24262;DHT22;12385;51.412;5.540;2023-04-24T20:41:02;9.00;99.90
24262;DHT22;12385;51.412;5.540;2023-04-24T20:43:28;8.90;99.90
24262;DHT22;12385;51.412;5.540;2023-04-24T20:45:53;8.90;99.90
24262;DHT22;12385;51.412;5.540;2023-04-24T20:48:21;8.80;99.90
24262;DHT22;12385;51.412;5.540;2023-04-24T20:50:47;8.80;99.90
24262;DHT22;12385;51.412;5.540;2023-04-24T20:53:14;8.70;99.90
24262;DHT22;12385;51.412;5.540;2023-04-24T20:55:43;8.60;99.90
24262;DHT22;12385;51.412;5.540;2023-04-24T20:58:09;8.60;99.90
24262;DHT22;12385;51.412;5.540;2023-04-24T21:00:34;8.50;99.90
24262;DHT22;12385;51.412;5.540;2023-04-24T21:03:00;8.50;99.90
24262;DHT22;12385;51.412;5.540;2023-04-24T21:05:25;8.50;99.90
24262;DHT22;12385;51.412;5.540;2023-04-24T21:07:51;8.40;99.90
24262;DHT22;12385;51.412;5.540;2023-04-24T21:10:21;8.40;99.90
24262;DHT22;12385;51.412;5.540;2023-04-24T21:12:47;8.40;99.90
24262;DHT22;12385;51.412;5.540;2023-04-24T21:15:13;8.40;99.90
24262;DHT22;12385;51.412;5.540;2023-04-24T21:17:39;8.30;99.90
24262;DHT22;12385;51.412;5.540;2023-04-24T21:20:06;8.30;99.90
24262;DHT22;12385;51.412;5.540;2023-04-24T21:22:32;8.30;99.90
24262;DHT22;12385;51.412;5.540;2023-04-24T21:24:58;8.20;99.90
24262;DHT22;12385;51.412;5.540;2023-04-24T21:27:24;8.10;99.90
24262;DHT22;12385;51.412;5.540;2023-04-24T21:29:49;8.00;99.90
24262;DHT22;12385;51.412;5.540;2023-04-24T21:32:15;8.00;99.90
24262;DHT22;12385;51.412;5.540;2023-04-24T21:34:41;7.90;99.90
24262;DHT22;12385;51.412;5.540;2023-04-24T21:37:06;7.90;99.90
24262;DHT22;12385;51.412;5.540;2023-04-24T21:39:32;7.90;99.90
24262;DHT22;12385;51.412;5.540;2023-04-24T21:41:57;7.90;99.90
24262;DHT22;12385;51.412;5.540;2023-04-24T21:44:23;7.90;99.90
24262;DHT22;12385;51.412;5.540;2023-04-24T21:46:56;7.80;99.90
24262;DHT22;12385;51.412;5.540;2023-04-24T21:49:21;7.90;99.90
24262;DHT22;12385;51.412;5.540;2023-04-24T21:51:47;7.80;99.90
24262;DHT22;12385;51.412;5.540;2023-04-24T21:54:13;7.80;99.90
24262;DHT22;12385;51.412;5.540;2023-04-24T21:56:38;7.90;99.90
24262;DHT22;12385;51.412;5.540;2023-04-24T21:59:06;7.80;99.90
24262;DHT22;12385;51.412;5.540;2023-04-24T22:01:31;7.80;99.90
24262;DHT22;12385;51.412;5.540;2023-04-24T22:03:59;7.70;99.90
24262;DHT22;12385;51.412;5.540;2023-04-24T22:06:27;7.70;99.90
24262;DHT22;12385;51.412;5.540;2023-04-24T22:08:52;7.70;99.90
24262;DHT22;12385;51.412;5.540;2023-04-24T22:11:18;7.60;99.90
24262;DHT22;12385;51.412;5.540;2023-04-24T22:13:44;7.60;99.90
24262;DHT22;12385;51.412;5.540;2023-04-24T22:16:09;7.60;99.90
24262;DHT22;12385;51.412;5.540;2023-04-24T22:18:35;7.60;99.90
24262;DHT22;12385;51.412;5.540;2023-04-24T22:21:01;7.70;99.90
24262;DHT22;12385;51.412;5.540;2023-04-24T22:23:26;7.60;99.90
24262;DHT22;12385;51.412;5.540;2023-04-24T22:25:53;7.70;99.90
24262;DHT22;12385;51.412;5.540;2023-04-24T22:28:18;7.70;99.90
24262;DHT22;12385;51.412;5.540;2023-04-24T22:30:44;7.70;99.90
24262;DHT22;12385;51.412;5.540;2023-04-24T22:33:10;7.70;99.90
24262;DHT22;12385;51.412;5.540;2023-04-24T22:35:35;7.70;99.90
24262;DHT22;12385;51.412;5.540;2023-04-24T22:38:02;7.70;99.90
24262;DHT22;12385;51.412;5.540;2023-04-24T22:40:30;7.70;99.90
24262;DHT22;12385;51.412;5.540;2023-04-24T22:42:56;7.70;99.90
24262;DHT22;12385;51.412;5.540;2023-04-24T22:45:21;7.60;99.90
24262;DHT22;12385;51.412;5.540;2023-04-24T22:47:49;7.60;99.90
24262;DHT22;12385;51.412;5.540;2023-04-24T22:50:15;7.60;99.90
24262;DHT22;12385;51.412;5.540;2023-04-24T22:52:41;7.60;99.90
24262;DHT22;12385;51.412;5.540;2023-04-24T22:55:09;7.60;99.90
24262;DHT22;12385;51.412;5.540;2023-04-24T22:57:35;7.50;99.90
24262;DHT22;12385;51.412;5.540;2023-04-24T23:00:05;7.50;99.90
24262;DHT22;12385;51.412;5.540;2023-04-24T23:02:37;7.50;99.90
24262;DHT22;12385;51.412;5.540;2023-04-24T23:05:03;7.40;99.90
24262;DHT22;12385;51.412;5.540;2023-04-24T23:07:30;7.40;99.90
24262;DHT22;12385;51.412;5.540;2023-04-24T23:09:55;7.40;99.90
24262;DHT22;12385;51.412;5.540;2023-04-24T23:12:21;7.40;99.90
24262;DHT22;12385;51.412;5.540;2023-04-24T23:14:47;7.40;99.90
24262;DHT22;12385;51.412;5.540;2023-04-24T23:17:12;7.50;99.90
24262;DHT22;12385;51.412;5.540;2023-04-24T23:19:38;7.50;99.90
24262;DHT22;12385;51.412;5.540;2023-04-24T23:22:04;7.50;99.90
24262;DHT22;12385;51.412;5.540;2023-04-24T23:24:30;7.60;99.90
24262;DHT22;12385;51.412;5.540;2023-04-24T23:26:56;7.60;99.90
24262;DHT22;12385;51.412;5.540;2023-04-24T23:29:21;7.70;99.90
24262;DHT22;12385;51.412;5.540;2023-04-24T23:31:48;7.80;99.90
24262;DHT22;12385;51.412;5.540;2023-04-24T23:34:13;7.80;99.90
24262;DHT22;12385;51.412;5.540;2023-04-24T23:36:42;7.80;99.90
24262;DHT22;12385;51.412;5.540;2023-04-24T23:39:08;7.80;99.90
24262;DHT22;12385;51.412;5.540;2023-04-24T23:41:34;7.90;99.90
24262;DHT22;12385;51.412;5.540;2023-04-24T23:44:01;7.90;99.90
24262;DHT22;12385;51.412;5.540;2023-04-24T23:46:27;7.90;99.90
24262;DHT22;12385;51.412;5.540;2023-04-24T23:48:53;7.90;99.90
24262;DHT22;12385;51.412;5.540;2023-04-24T23:51:18;7.90;99.90
24262;DHT22;12385;51.412;5.540;2023-04-24T23:53:44;7.90;99.90
24262;DHT22;12385;51.412;5.540;2023-04-24T23:56:10;7.90;99.90
24262;DHT22;12385;51.412;5.540;2023-04-24T23:58:36;8.00;99.90
